Data for 09/17/2017

Time Sea-Level Adjusted Pressure Absolute Pressure Temperature Relative Humidity Dew Point   
(mb) (inHg) (mb) (inHg) (C) (F) (%) (C) (F)
00:05 1022 30.18 851 25.13 1.9 35.3 79 -1.3 29.6
00:10 1022 30.18 851 25.13 1.8 35.2 80 -1.4 29.5
00:15 1022 30.18 851 25.13 1.7 35.1 80 -1.4 29.5
00:20 1021 30.15 851 25.13 1.7 35.1 79 -1.5 29.3
00:25 1021 30.15 851 25.13 1.8 35.3 79 -1.4 29.4
00:30 1021 30.15 851 25.13 1.8 35.2 79 -1.6 29.2
00:35 1021 30.15 851 25.13 1.9 35.5 77 -1.7 28.9
00:40 1021 30.15 851 25.13 2.1 35.8 77 -1.6 29.2
00:45 1021 30.15 850 25.1 2.2 35.9 77 -1.5 29.2
00:50 1021 30.15 850 25.1 1.8 35.2 80 -1.3 29.6
00:55 1021 30.15 850 25.1 1.4 34.4 81 -1.5 29.3
01:00 1021 30.15 850 25.1 1.2 34.2 82 -1.6 29.2
01:05 1021 30.15 850 25.1 1.3 34.3 81 -1.7 29
01:10 1021 30.15 850 25.1 1.3 34.3 81 -1.6 29.1
01:15 1021 30.15 850 25.1 1.4 34.5 80 -1.7 28.9
01:20 1021 30.15 850 25.1 1.6 34.8 79 -1.7 28.9
01:25 1021 30.15 850 25.1 1.5 34.7 79 -1.7 29
01:30 1021 30.15 850 25.1 1.4 34.6 79 -1.8 28.8
01:35 1021 30.15 850 25.1 1.6 34.9 78 -1.9 28.7
01:40 1021 30.15 850 25.1 1.7 35.1 77 -1.8 28.7
01:45 1021 30.15 850 25.1 1.7 35.1 77 -1.9 28.6
01:50 1021 30.15 850 25.1 1.7 35.1 78 -1.8 28.8
01:55 1021 30.15 850 25.1 1.7 35.1 78 -1.8 28.8
02:00 1021 30.15 850 25.1 1.5 34.8 79 -1.7 28.9
02:05 1021 30.15 850 25.1 1.4 34.6 80 -1.7 28.9
02:10 1021 30.15 850 25.1 1.4 34.5 79 -1.8 28.7
02:15 1021 30.15 850 25.1 1.5 34.7 78 -1.9 28.6
02:20 1021 30.15 850 25.1 1.7 35.1 75 -2.2 28.1
02:25 1021 30.15 850 25.1 2.2 35.9 74 -2 28.5
02:30 1021 30.15 850 25.1 2 35.6 76 -1.8 28.8
02:35 1021 30.15 850 25.1 2 35.6 74 -2.2 28.1
02:40 1021 30.15 850 25.1 2.1 35.7 74 -2.1 28.3
02:45 1021 30.15 850 25.1 2.3 36.1 74 -1.9 28.5
02:50 1021 30.15 850 25.1 2 35.7 75 -1.9 28.6
02:55 1021 30.15 850 25.1 1.9 35.5 76 -1.9 28.5
03:00 1021 30.15 850 25.1 1.7 35 77 -2 28.5
03:05 1021 30.15 850 25.1 1.7 35 77 -2 28.4
03:10 1021 30.15 850 25.1 1.6 34.9 78 -1.9 28.6
03:15 1021 30.15 850 25.1 1.2 34.2 80 -1.9 28.5
03:20 1021 30.15 850 25.1 1 33.9 79 -2.2 28.1
03:25 1021 30.15 850 25.1 1.2 34.2 79 -2.1 28.2
03:30 1021 30.15 850 25.1 1.2 34.2 79 -2 28.4
03:35 1021 30.15 850 25.1 1.2 34.2 80 -1.9 28.5
03:40 1021 30.15 850 25.1 1.3 34.3 79 -1.9 28.5
03:45 1020 30.12 850 25.1 1.3 34.3 79 -1.9 28.5
03:50 1020 30.12 850 25.1 1.2 34.2 79 -1.9 28.5
03:55 1020 30.12 850 25.1 1.2 34.1 80 -2 28.5
04:00 1020 30.12 850 25.1 1.1 34 80 -2 28.4
04:05 1020 30.12 850 25.1 1.1 34.1 80 -2 28.5
04:10 1020 30.12 850 25.1 1.1 33.9 80 -2 28.4
04:15 1020 30.12 850 25.1 1.2 34.2 79 -1.9 28.5
04:20 1020 30.12 850 25.1 1.3 34.3 79 -1.9 28.5
04:25 1020 30.12 849 25.07 1.4 34.5 79 -1.9 28.6
04:30 1020 30.12 849 25.07 1.4 34.5 79 -1.9 28.6
04:35 1020 30.12 849 25.07 1.4 34.6 79 -1.9 28.6
04:40 1020 30.12 849 25.07 1.6 34.8 78 -1.9 28.6
04:45 1020 30.12 849 25.07 1.6 34.9 77 -1.9 28.6
04:50 1020 30.12 849 25.07 1.7 35.1 77 -1.9 28.6
04:55 1020 30.12 849 25.07 1.7 35.1 76 -2 28.5
05:00 1020 30.12 849 25.07 2 35.7 74 -2.1 28.2
05:05 1020 30.12 849 25.07 2.1 35.7 75 -1.8 28.7
05:10 1020 30.12 849 25.07 1.9 35.4 77 -1.8 28.8
05:15 1020 30.12 849 25.07 1.9 35.4 76 -1.9 28.6
05:20 1020 30.12 849 25.07 1.9 35.4 76 -1.9 28.6
05:25 1020 30.12 849 25.07 1.9 35.3 77 -1.8 28.7
05:30 1020 30.12 849 25.07 1.7 35 78 -1.8 28.7
05:35 1020 30.12 849 25.07 1.5 34.8 79 -1.8 28.8
05:40 1020 30.12 849 25.07 1.4 34.5 79 -1.9 28.7
05:45 1020 30.12 849 25.07 1.4 34.5 79 -1.9 28.6
05:50 1020 30.12 849 25.07 1.5 34.6 78 -1.9 28.6
05:55 1020 30.12 849 25.07 1.5 34.8 78 -2 28.5
06:00 1020 30.12 849 25.07 1.5 34.7 78 -2 28.5
06:05 1020 30.12 849 25.07 1.5 34.7 77 -2 28.4
06:10 1020 30.12 849 25.07 1.5 34.7 78 -2 28.4
06:15 1020 30.12 849 25.07 1.4 34.5 78 -2 28.3
06:20 1020 30.12 849 25.07 1.4 34.5 78 -2.1 28.3
06:25 1020 30.12 849 25.07 1.4 34.6 78 -2 28.3
06:30 1020 30.12 849 25.07 1.4 34.6 77 -2.1 28.3
06:35 1020 30.12 849 25.07 1.5 34.8 77 -2 28.4
06:40 1020 30.12 849 25.07 1.5 34.8 77 -2 28.4
06:45 1020 30.12 849 25.07 1.6 35 77 -2 28.3
06:50 1020 30.12 849 25.07 1.9 35.4 75 -2 28.3
06:55 1020 30.12 849 25.07 2.1 35.9 74 -2 28.5
07:00 1020 30.12 849 25.07 2.2 36 75 -1.8 28.8
07:05 1019 30.09 849 25.07 2.4 36.3 73 -1.9 28.5
07:10 1020 30.12 849 25.07 2.5 36.5 73 -1.8 28.7
07:15 1020 30.12 849 25.07 2.8 37 71 -1.9 28.5
07:20 1020 30.12 849 25.07 3 37.5 70 -1.9 28.6
07:25 1020 30.12 849 25.07 3.5 38.3 68 -1.9 28.6
07:30 1020 30.12 849 25.07 4 39.2 67 -1.6 29.1
07:35 1020 30.12 849 25.07 4.4 39.8 64 -1.7 28.9
07:40 1019 30.09 849 25.07 4.8 40.6 64 -1.5 29.2
07:45 1019 30.09 849 25.07 5.1 41.2 63 -1.2 29.8
07:50 1019 30.09 849 25.07 5.5 41.9 60 -1.6 29.1
07:55 1019 30.09 849 25.07 5.5 41.8 60 -1.6 29.2
08:00 1019 30.09 849 25.07 5.5 41.8 62 -1.2 29.9
08:05 1019 30.09 849 25.07 5.5 41.9 61 -1.5 29.3
08:10 1019 30.09 849 25.07 5.6 42.1 61 -1.3 29.6
08:15 1019 30.09 849 25.07 6.1 43 58 -1.6 29.2
08:20 1019 30.09 849 25.07 6.3 43.4 59 -1.1 30
08:25 1019 30.09 849 25.07 6 42.9 59 -1.3 29.7
08:30 1019 30.09 849 25.07 5.8 42.5 61 -1.2 29.9
08:35 1019 30.09 849 25.07 5.9 42.6 60 -1.2 29.8
08:40 1019 30.09 848 25.04 6.2 43.1 60 -1 30.2
08:45 1019 30.09 848 25.04 6.3 43.3 62 -0.5 31
08:50 1019 30.09 848 25.04 6.3 43.4 62 -0.4 31.3
08:55 1019 30.09 848 25.04 6.5 43.7 59 -0.9 30.4
09:00 1019 30.09 848 25.04 6.7 44.1 59 -0.7 30.8
09:05 1019 30.09 848 25.04 7.1 44.8 55 -1.3 29.7
09:10 1019 30.09 848 25.04 7.4 45.2 52 -1.8 28.8
09:15 1019 30.09 848 25.04 8.1 46.6 50 -1.7 29
09:20 1019 30.09 848 25.04 8.5 47.2 51 -1 30.3
09:25 1019 30.09 848 25.04 8.6 47.5 51 -0.8 30.5
09:30 1019 30.09 848 25.04 8.9 48 48 -1.4 29.5
09:35 1019 30.09 848 25.04 8.5 47.3 50 -1.4 29.5
09:40 1019 30.09 848 25.04 8.5 47.3 49 -1.5 29.3
09:45 1019 30.09 848 25.04 9 48.2 48 -1.4 29.5
09:50 1019 30.09 848 25.04 9.4 48.9 47 -1.4 29.6
09:55 1019 30.09 848 25.04 9.7 49.4 45 -1.5 29.3
10:00 1019 30.09 848 25.04 9.4 48.9 47 -1.2 29.8
10:05 1019 30.09 848 25.04 10.1 50.1 44 -1.7 28.9
10:10 1019 30.09 848 25.04 10.2 50.3 48 -0.3 31.4
10:15 1019 30.09 848 25.04 9.9 49.8 48 -0.6 31
10:20 1019 30.09 848 25.04 11.1 52 45 -0.4 31.2
10:25 1019 30.09 848 25.04 11 51.9 46 -0.2 31.7
10:30 1019 30.09 848 25.04 11.5 52.7 42 -1 30.2
10:35 1019 30.09 848 25.04 11.7 53 43 -0.3 31.4
10:40 1019 30.09 848 25.04 12.2 53.9 42 -0.4 31.3
10:45 1019 30.09 848 25.04 12 53.6 42 -0.5 31.2
10:50 1019 30.09 848 25.04 11.3 52.3 42 -1.1 30.1
10:55 1019 30.09 848 25.04 12.2 53.9 41 -0.8 30.6
11:00 1019 30.09 848 25.04 12.5 54.4 39 -1.2 29.9
11:05 1019 30.09 848 25.04 12.9 55.1 36 -1.8 28.8
11:10 1018 30.06 848 25.04 13.4 56.1 33 -2.5 27.5
11:15 1018 30.06 848 25.04 13.9 57.1 34 -1.8 28.8
11:20 1018 30.06 848 25.04 13.6 56.5 36 -1.1 30.1
11:25 1018 30.06 848 25.04 13.1 55.6 37 -1.2 29.9
11:30 1018 30.06 848 25.04 12.7 54.9 38 -1.1 30.1
11:35 1018 30.06 848 25.04 11.9 53.5 41 -0.9 30.3
11:40 1018 30.06 848 25.04 11.7 53.1 40 -1.3 29.7
11:45 1018 30.06 848 25.04 11.8 53.3 42 -0.7 30.7
11:50 1018 30.06 847 25.01 11.4 52.4 42 -0.9 30.3
11:55 1018 30.06 847 25.01 11.3 52.4 41 -1.4 29.5
12:00 1018 30.06 847 25.01 12.4 54.3 38 -1.5 29.4
12:05 1018 30.06 847 25.01 13.6 56.5 35 -1.5 29.2
12:10 1018 30.06 847 25.01 13.8 56.9 34 -1.7 28.9
12:15 1018 30.06 847 25.01 13.5 56.3 35 -1.4 29.5
12:20 1018 30.06 847 25.01 13.9 56.9 34 -1.5 29.3
12:25 1018 30.06 847 25.01 14.5 58 31 -2.2 28.1
12:30 1018 30.06 847 25.01 15 58.9 32 -1.7 29
12:35 1018 30.06 847 25.01 14.8 58.6 33 -1.2 29.9
12:40 1018 30.06 847 25.01 15.1 59.2 32 -1.3 29.7
12:45 1018 30.06 847 25.01 15 59.1 30 -2.2 28.1
12:50 1018 30.06 847 25.01 14.5 58.1 32 -1.9 28.6
12:55 1018 30.06 847 25.01 14.1 57.4 31 -2.6 27.4
13:00 1018 30.06 847 25.01 15.2 59.4 29 -2.5 27.6
13:05 1018 30.06 847 25.01 16 60.7 30 -1.6 29.2
13:10 1018 30.06 847 25.01 14.8 58.6 31 -2.3 27.9
13:15 1018 30.06 847 25.01 15.3 59.5 31 -1.5 29.3
13:20 1018 30.06 847 25.01 15.7 60.3 30 -1.5 29.2
13:25 1017 30.03 847 25.01 16.6 62 29 -1.5 29.3
13:30 1017 30.03 847 25.01 16.6 61.9 29 -1.2 29.8
13:35 1017 30.03 847 25.01 16 60.8 29 -1.8 28.8
13:40 1017 30.03 847 25.01 15.8 60.4 30 -1.8 28.7
13:45 1017 30.03 847 25.01 15.4 59.7 30 -1.8 28.7
13:50 1017 30.03 846 24.98 15.5 60 30 -1.7 28.9
13:55 1017 30.03 846 24.98 16.2 61.1 29 -1.9 28.6
14:00 1017 30.03 846 24.98 16.3 61.4 30 -1 30.3
14:05 1017 30.03 846 24.98 16.1 61 29 -1.9 28.7
14:10 1017 30.03 846 24.98 16.5 61.7 29 -1.6 29.2
14:15 1017 30.03 846 24.98 16.5 61.6 27 -2.3 27.8
14:20 1017 30.03 846 24.98 16.9 62.4 27 -2.2 28
14:25 1017 30.03 846 24.98 17.1 62.8 26 -2.2 28
14:30 1017 30.03 846 24.98 16.9 62.4 27 -2 28.4
14:35 1017 30.03 846 24.98 16.8 62.2 27 -2.4 27.7
14:40 1017 30.03 846 24.98 17.1 62.8 25 -3.1 26.5
14:45 1017 30.03 846 24.98 17.3 63.2 20 -5.8 21.6
14:50 1017 30.03 846 24.98 17.1 62.8 21 -5.4 22.2
14:55 1017 30.03 846 24.98 17 62.5 21 -5.2 22.7
15:00 1017 30.03 846 24.98 17 62.5 22 -4.9 23.2
15:05 1017 30.03 846 24.98 17.1 62.8 20 -6.2 20.9
15:10 1016 30 846 24.98 17.3 63.1 21 -5.1 22.8
15:15 1016 30 846 24.98 17.2 62.9 22 -4.6 23.8
15:20 1016 30 846 24.98 17 62.5 20 -6.1 21.1
15:25 1016 30 846 24.98 16.9 62.5 21 -5.3 22.4
15:30 1016 30 846 24.98 17.2 62.9 21 -5.1 22.9
15:35 1016 30 846 24.98 17.1 62.8 21 -5.2 22.7
15:40 1017 30.03 846 24.98 17 62.5 18 -7.6 18.4
15:45 1017 30.03 846 24.98 16.7 62 18 -7.4 18.7
15:50 1017 30.03 846 24.98 16.7 62 19 -7.1 19.2
15:55 1017 30.03 846 24.98 16.7 62 20 -6.5 20.3
16:00 1017 30.03 846 24.98 16.9 62.4 20 -6.2 20.8
16:05 1017 30.03 846 24.98 16.9 62.3 18 -7.7 18.2
16:10 1017 30.03 846 24.98 16.7 62 20 -6.2 20.9
16:15 1017 30.03 846 24.98 16.7 62 19 -6.6 20
16:20 1017 30.03 846 24.98 16.9 62.4 20 -6.2 20.9
16:25 1017 30.03 846 24.98 16.8 62.3 21 -5.3 22.5
16:30 1017 30.03 846 24.98 16.9 62.5 21 -5.6 22
16:35 1017 30.03 846 24.98 16.7 62 22 -4.8 23.4
16:40 1017 30.03 846 24.98 16.3 61.4 22 -5.1 22.9
16:45 1017 30.03 846 24.98 16.2 61.1 24 -4.4 24.1
16:50 1017 30.03 846 24.98 16.1 61 25 -4.1 24.7
16:55 1017 30.03 846 24.98 16.1 60.9 24 -4.4 24
17:00 1016 30 846 24.98 16.2 61.2 24 -4 24.8
17:05 1016 30 846 24.98 16.3 61.4 25 -3.7 25.3
17:10 1016 30 846 24.98 16.8 62.2 24 -3.8 25.2
17:15 1016 30 846 24.98 16.8 62.3 25 -3.5 25.8
17:20 1016 30 846 24.98 16.7 62.1 24 -3.6 25.5
17:25 1016 30 846 24.98 16.3 61.4 25 -3.6 25.5
17:30 1016 30 846 24.98 16 60.8 26 -3.6 25.6
17:35 1016 30 846 24.98 15.8 60.4 27 -3.3 26.1
17:40 1016 30 846 24.98 15.6 60.1 27 -3.1 26.4
17:45 1016 30 846 24.98 15.5 59.8 29 -2.6 27.4
17:50 1016 30 846 24.98 15.4 59.6 29 -2.6 27.3
17:55 1016 30 846 24.98 15.3 59.5 28 -3.1 26.3
18:00 1016 30 845 24.95 15.2 59.3 29 -2.6 27.3
18:05 1016 30 845 24.95 15 59.1 30 -2.2 28
18:10 1016 30 845 24.95 14.8 58.6 30 -2.6 27.4
18:15 1016 30 845 24.95 14.6 58.3 31 -2.4 27.6
18:20 1016 30 845 24.95 14.4 58 31 -2.4 27.7
18:25 1016 30 845 24.95 14.2 57.5 32 -2.1 28.3
18:30 1016 30 845 24.95 13.9 57 33 -2 28.4
18:35 1016 30 845 24.95 13.6 56.4 35 -1.5 29.3
18:40 1016 30 845 24.95 13.4 56.1 35 -1.7 29
18:45 1016 30 845 24.95 13.3 55.9 36 -1.5 29.4
18:50 1016 30 845 24.95 13.1 55.7 36 -1.7 29
18:55 1016 30 845 24.95 13 55.4 38 -1.1 30
19:00 1016 30 845 24.95 12.5 54.6 42 -0.1 31.8
19:05 1016 30 845 24.95 12 53.6 41 -0.6 30.9
19:10 1016 30 845 24.95 11.8 53.3 38 -1.8 28.7
19:15 1016 30 845 24.95 11.8 53.3 42 -0.7 30.7
19:20 1016 30 845 24.95 11.5 52.6 44 -0.4 31.3
19:25 1016 30 845 24.95 11 51.8 47 0.2 32.3
19:30 1016 30 845 24.95 10.6 51.2 46 -0.5 31.1
19:35 1016 30 845 24.95 10.6 51.1 45 -0.8 30.6
19:40 1016 30 845 24.95 10.5 50.9 45 -1 30.3
19:45 1016 30 845 24.95 10.9 51.5 40 -2.1 28.2
19:50 1016 30 845 24.95 11 51.9 43 -1 30.1
19:55 1016 30 845 24.95 10.7 51.3 44 -1.1 30
20:00 1016 30 846 24.98 10.4 50.7 43 -1.5 29.2
20:05 1016 30 846 24.98 10.4 50.7 45 -1 30.1
20:10 1016 30 846 24.98 10.2 50.4 46 -0.8 30.5
20:15 1016 30 846 24.98 9.9 49.8 46 -1 30.1
20:20 1016 30 846 24.98 9.7 49.4 47 -1.1 30
20:25 1016 30 846 24.98 9.6 49.4 46 -1.3 29.7
20:30 1016 30 845 24.95 9.7 49.5 47 -1.1 30
20:35 1016 30 845 24.95 9.9 49.8 45 -1.3 29.6
20:40 1016 30 845 24.95 9.7 49.4 48 -0.7 30.8
20:45 1016 30 845 24.95 9.3 48.7 50 -0.6 30.9
20:50 1016 30 845 24.95 9.2 48.5 50 -0.7 30.7
20:55 1016 30 845 24.95 9 48.2 51 -0.6 31
21:00 1016 30 845 24.95 8.7 47.7 52 -0.6 30.8
21:05 1016 30 845 24.95 8.6 47.5 51 -1 30.3
21:10 1016 30 845 24.95 8.5 47.2 52 -0.9 30.4
21:15 1016 30 845 24.95 8.4 47.1 50 -1.4 29.5
21:20 1016 30 845 24.95 8.6 47.4 49 -1.5 29.3
21:25 1016 30 845 24.95 8.6 47.5 50 -1.2 29.9
21:30 1016 30 845 24.95 8.5 47.2 50 -1.3 29.6
21:35 1016 30 845 24.95 8.4 47.1 51 -1.2 29.8
21:40 1015 29.97 845 24.95 8.4 47 50 -1.5 29.3
21:45 1015 29.97 845 24.95 8.4 47.2 50 -1.4 29.4
21:50 1015 29.97 845 24.95 8.4 47 50 -1.5 29.2
21:55 1015 29.97 845 24.95 8.3 47 50 -1.5 29.3
22:00 1015 29.97 845 24.95 8.3 46.9 49 -1.6 29.1
22:05 1015 29.97 845 24.95 8.4 47 49 -1.6 29.1
22:10 1015 29.97 845 24.95 8.4 47.1 49 -1.7 28.9
22:15 1015 29.97 844 24.92 8.4 47 50 -1.5 29.2
22:20 1015 29.97 844 24.92 8.4 47.1 49 -1.7 28.9
22:25 1015 29.97 844 24.92 8.3 47 49 -1.7 29
22:30 1015 29.97 844 24.92 8.3 46.9 49 -1.8 28.7
22:35 1015 29.97 844 24.92 8.3 47 49 -1.8 28.8
22:40 1015 29.97 844 24.92 8.4 47 49 -1.7 28.9
22:45 1015 29.97 844 24.92 8.3 46.9 49 -1.8 28.7
22:50 1015 29.97 844 24.92 8.3 47 48 -1.9 28.6
22:55 1015 29.97 844 24.92 8.3 47 49 -1.8 28.8
23:00 1015 29.97 844 24.92 8.2 46.8 49 -1.9 28.6
23:05 1015 29.97 844 24.92 8.2 46.8 49 -1.9 28.5
23:10 1015 29.97 844 24.92 8.2 46.8 49 -1.9 28.6
23:15 1015 29.97 844 24.92 8.3 46.9 48 -2 28.3
23:20 1015 29.97 844 24.92 8.1 46.6 49 -1.8 28.7
23:25 1015 29.97 844 24.92 8 46.3 50 -1.9 28.6
23:30 1015 29.97 844 24.92 7.8 46.1 50 -1.9 28.5
23:35 1015 29.97 844 24.92 7.8 46 51 -1.8 28.8
23:40 1015 29.97 844 24.92 7.7 45.8 51 -1.7 29
23:45 1015 29.97 844 24.92 7.6 45.8 51 -1.7 28.9
23:50 1015 29.97 844 24.92 7.5 45.6 51 -1.9 28.7
23:55 1015 29.97 844 24.92 7.6 45.7 50 -2.1 28.2
24:00 1015 29.97 844 24.92 7.9 46.2 49 -2 28.3